createdAt,value
2023-03-16T00:00:16.570Z,100149.34
2023-03-16T00:02:45.232Z,100156.28
2023-03-16T00:05:13.956Z,100147.50
2023-03-16T00:07:42.071Z,100155.25
2023-03-16T00:10:12.324Z,100154.34
2023-03-16T00:12:39.557Z,100148.94
2023-03-16T00:15:06.859Z,100147.03
2023-03-16T00:17:34.730Z,100140.81
2023-03-16T00:20:06.796Z,100145.88
2023-03-16T00:22:34.198Z,100139.66
2023-03-16T00:25:01.752Z,100140.34
2023-03-16T00:27:29.589Z,100141.97
2023-03-16T00:29:56.520Z,100134.03
2023-03-16T00:32:29.316Z,100132.22
2023-03-16T00:34:56.302Z,100129.41
2023-03-16T00:37:24.248Z,100132.88
2023-03-16T00:39:51.503Z,100124.97
2023-03-16T00:42:19.681Z,100117.97
2023-03-16T00:44:46.931Z,100123.16
2023-03-16T00:47:16.904Z,100117.94
2023-03-16T00:49:44.749Z,100107.47
2023-03-16T00:52:16.177Z,100110.09
2023-03-16T00:54:45.076Z,100120.50
2023-03-16T00:57:14.043Z,100113.56
2023-03-16T00:59:40.850Z,100114.44
2023-03-16T01:02:09.232Z,100120.50
2023-03-16T01:04:36.594Z,100118.75
2023-03-16T01:07:12.404Z,100115.38
2023-03-16T01:09:42.810Z,100120.59
2023-03-16T01:12:15.978Z,100126.78
2023-03-16T01:14:45.768Z,100142.53
2023-03-16T01:17:13.950Z,100135.72
2023-03-16T01:19:41.619Z,100134.13
2023-03-16T01:22:10.205Z,100134.31
2023-03-16T01:24:37.405Z,100117.13
2023-03-16T01:27:05.252Z,100109.53
2023-03-16T01:29:33.100Z,100112.28
2023-03-16T01:32:00.529Z,100114.19
2023-03-16T01:34:28.067Z,100105.66
2023-03-16T01:36:54.636Z,100093.63
2023-03-16T01:39:21.062Z,100088.53
2023-03-16T01:41:47.954Z,100083.34
2023-03-16T01:44:22.400Z,100074.81
2023-03-16T01:46:48.937Z,100072.16
2023-03-16T01:49:25.192Z,100079.16
2023-03-16T01:52:02.574Z,100064.38
2023-03-16T01:54:40.902Z,100058.28
2023-03-16T01:57:18.360Z,100057.44
2023-03-16T02:00:18.516Z,100057.53
2023-03-16T02:02:48.536Z,100060.97
2023-03-16T02:05:25.649Z,100061.97
2023-03-16T02:07:58.876Z,100057.53
2023-03-16T02:10:28.883Z,100053.22
2023-03-16T02:12:55.668Z,100044.47
2023-03-16T02:15:22.190Z,100043.66
2023-03-16T02:17:50.340Z,100037.59
2023-03-16T02:20:29.145Z,100029.84
2023-03-16T02:22:55.944Z,100033.34
2023-03-16T02:25:27.000Z,100027.28
2023-03-16T02:28:00.573Z,100026.50
2023-03-16T02:30:27.654Z,100025.59
2023-03-16T02:32:54.928Z,100022.16
2023-03-16T02:35:21.998Z,100032.63
2023-03-16T02:37:48.705Z,100029.16
2023-03-16T02:40:25.685Z,100023.19
2023-03-16T02:43:05.287Z,100008.47
2023-03-16T02:45:39.258Z,100015.38
2023-03-16T02:48:14.938Z,100018.94
2023-03-16T02:50:49.899Z,100026.00
2023-03-16T02:53:17.600Z,100019.00
2023-03-16T02:55:45.008Z,100011.25
2023-03-16T02:58:11.745Z,100010.47
2023-03-16T03:00:38.555Z,100015.72
2023-03-16T03:03:08.247Z,100016.63
2023-03-16T03:05:35.362Z,100013.16
2023-03-16T03:08:01.724Z,100020.06
2023-03-16T03:10:28.506Z,100014.84
2023-03-16T03:12:55.133Z,100011.38
2023-03-16T03:15:21.882Z,100016.50
2023-03-16T03:17:48.393Z,100015.69
2023-03-16T03:20:16.597Z,100017.38
2023-03-16T03:22:48.646Z,100017.41
2023-03-16T03:25:17.185Z,100013.84
2023-03-16T03:27:44.986Z,100016.47
2023-03-16T03:30:14.687Z,100018.16
2023-03-16T03:32:41.662Z,100013.78
2023-03-16T03:35:08.630Z,100006.69
2023-03-16T03:37:35.248Z,100003.22
2023-03-16T03:40:10.350Z,99999.66
2023-03-16T03:42:36.744Z,99994.31
2023-03-16T03:45:03.440Z,99989.00
2023-03-16T03:47:29.901Z,99992.44
2023-03-16T03:49:56.400Z,99988.88
2023-03-16T03:52:22.889Z,99990.56
2023-03-16T03:54:49.341Z,99991.38
2023-03-16T03:57:15.863Z,99991.31
2023-03-16T03:59:45.254Z,99992.16
2023-03-16T04:02:13.288Z,99992.97
2023-03-16T04:04:41.720Z,100000.75
2023-03-16T04:07:08.737Z,99988.59
2023-03-16T04:09:35.219Z,99992.03
2023-03-16T04:12:05.159Z,99990.31
2023-03-16T04:14:32.517Z,99981.59
2023-03-16T04:16:59.346Z,99985.97
2023-03-16T04:19:26.352Z,99981.59
2023-03-16T04:21:53.287Z,99981.53
2023-03-16T04:24:19.914Z,99977.19
2023-03-16T04:26:46.485Z,99972.75
2023-03-16T04:29:14.469Z,99962.31
2023-03-16T04:31:42.316Z,99957.91
2023-03-16T04:34:09.579Z,99959.56
2023-03-16T04:36:36.063Z,99949.06
2023-03-16T04:39:02.878Z,99950.78
2023-03-16T04:41:29.359Z,99955.06
2023-03-16T04:43:57.640Z,99958.50
2023-03-16T04:46:26.707Z,99956.81
2023-03-16T04:48:53.977Z,99948.06
2023-03-16T04:51:21.509Z,99957.59
2023-03-16T04:53:48.168Z,99948.03
2023-03-16T04:56:19.442Z,99949.75
2023-03-16T04:58:47.846Z,99937.63
2023-03-16T05:01:15.219Z,99944.59
2023-03-16T05:03:43.652Z,99954.13
2023-03-16T05:06:11.907Z,99948.06
2023-03-16T05:08:38.434Z,99946.25
2023-03-16T05:11:05.191Z,99949.66
2023-03-16T05:13:31.743Z,99940.97
2023-03-16T05:15:58.292Z,99936.56
2023-03-16T05:18:24.995Z,99933.00
2023-03-16T05:20:53.548Z,99920.72
2023-03-16T05:23:20.673Z,99925.91
2023-03-16T05:25:48.366Z,99929.38
2023-03-16T05:28:15.097Z,99924.16
2023-03-16T05:30:42.630Z,99933.75
2023-03-16T05:33:09.503Z,99921.53
2023-03-16T05:35:36.081Z,99920.63
2023-03-16T05:38:02.826Z,99927.59
2023-03-16T05:40:29.726Z,99930.16
2023-03-16T05:42:57.872Z,99919.72
2023-03-16T05:45:24.888Z,99919.72
2023-03-16T05:47:51.838Z,99910.13
2023-03-16T05:50:18.396Z,99909.22
2023-03-16T05:52:46.132Z,99909.28
2023-03-16T05:55:14.577Z,99920.63
2023-03-16T05:57:41.587Z,99922.38
2023-03-16T06:00:14.491Z,99925.00
2023-03-16T06:02:44.603Z,99920.63
2023-03-16T06:05:11.371Z,99918.72
2023-03-16T06:07:38.019Z,99914.41
2023-03-16T06:10:05.904Z,99917.00
2023-03-16T06:12:34.057Z,99913.53
2023-03-16T06:15:01.622Z,99900.44
2023-03-16T06:17:28.200Z,99909.06
2023-03-16T06:19:54.634Z,99902.03
2023-03-16T06:22:21.149Z,99903.69
2023-03-16T06:24:47.619Z,99901.81
2023-03-16T06:27:14.084Z,99910.44
2023-03-16T06:29:40.511Z,99919.88
2023-03-16T06:32:07.192Z,99918.06
2023-03-16T06:34:35.435Z,99913.66
2023-03-16T06:37:04.364Z,99912.69
2023-03-16T06:39:31.267Z,99914.28
2023-03-16T06:41:58.229Z,99925.50
2023-03-16T06:44:24.680Z,99922.75
2023-03-16T06:46:51.176Z,99923.47
2023-03-16T06:49:17.633Z,99922.47
2023-03-16T06:51:44.041Z,99919.75
2023-03-16T06:54:10.516Z,99927.53
2023-03-16T06:56:36.944Z,99933.50
2023-03-16T06:59:03.406Z,99932.56
2023-03-16T07:01:30.295Z,99923.81
2023-03-16T07:03:56.822Z,99933.25
2023-03-16T07:06:23.301Z,99930.59
2023-03-16T07:08:49.839Z,99941.81
2023-03-16T07:11:16.297Z,99930.38
2023-03-16T07:13:42.812Z,99937.25
2023-03-16T07:16:09.344Z,99934.50
2023-03-16T07:18:37.954Z,99940.53
2023-03-16T07:21:04.707Z,99929.97
2023-03-16T07:23:32.280Z,99928.09
2023-03-16T07:25:58.859Z,99922.75
2023-03-16T07:28:25.464Z,99923.47
2023-03-16T07:31:02.905Z,99925.06
2023-03-16T07:33:29.744Z,99917.91
2023-03-16T07:35:56.306Z,99928.25
2023-03-16T07:38:22.881Z,99914.97
2023-03-16T07:40:50.097Z,99923.47
2023-03-16T07:43:16.723Z,99930.16
2023-03-16T07:45:48.047Z,99927.31
2023-03-16T07:48:14.577Z,99933.97
2023-03-16T07:50:41.563Z,99933.75
2023-03-16T07:53:08.114Z,99937.97
2023-03-16T07:55:36.649Z,99936.00
2023-03-16T07:58:05.134Z,99948.84
2023-03-16T08:00:33.668Z,99939.16
2023-03-16T08:03:00.513Z,99948.59
2023-03-16T08:05:27.864Z,99943.22
2023-03-16T08:07:57.240Z,99937.03
2023-03-16T08:10:24.518Z,99948.16
2023-03-16T08:12:51.699Z,99946.25
2023-03-16T08:15:19.328Z,99946.88
2023-03-16T08:17:46.685Z,99948.44
2023-03-16T08:20:15.644Z,99945.63
2023-03-16T08:22:46.108Z,99947.22
2023-03-16T08:25:13.582Z,99958.34
2023-03-16T08:27:40.317Z,99952.91
2023-03-16T08:30:11.385Z,99957.16
2023-03-16T08:32:39.693Z,99957.91
2023-03-16T08:35:16.818Z,99962.16
2023-03-16T08:37:43.675Z,99963.66
2023-03-16T08:40:14.136Z,99955.66
2023-03-16T08:42:41.539Z,99958.03
2023-03-16T08:45:12.396Z,99949.06
2023-03-16T08:47:40.516Z,99948.66
2023-03-16T08:50:09.104Z,99955.31
2023-03-16T08:52:39.186Z,99953.13
2023-03-16T08:55:07.260Z,99954.56
2023-03-16T08:57:34.451Z,99951.59
2023-03-16T09:00:01.554Z,99951.25
2023-03-16T09:02:28.102Z,99946.53
2023-03-16T09:04:54.678Z,99943.56
2023-03-16T09:07:22.000Z,99956.31
2023-03-16T09:09:48.548Z,99949.06
2023-03-16T09:12:15.058Z,99950.56
2023-03-16T09:14:41.687Z,99946.88
2023-03-16T09:17:08.231Z,99940.50
2023-03-16T09:19:50.479Z,99938.56
2023-03-16T09:22:19.611Z,99935.63
2023-03-16T09:24:46.377Z,99932.78
2023-03-16T09:27:13.040Z,99929.97
2023-03-16T09:29:41.059Z,99927.94
2023-03-16T09:32:08.571Z,99931.06
2023-03-16T09:34:35.223Z,99923.78
2023-03-16T09:37:02.539Z,99928.72
2023-03-16T09:39:29.437Z,99924.00
2023-03-16T09:42:17.323Z,99930.75
2023-03-16T09:44:58.685Z,99929.44
2023-03-16T09:47:32.160Z,99935.94
2023-03-16T09:50:02.387Z,99937.25
2023-03-16T09:52:38.363Z,99933.53
2023-03-16T09:55:23.490Z,99933.13
2023-03-16T09:57:51.903Z,99932.81
2023-03-16T10:00:22.250Z,99925.50
2023-03-16T10:03:10.035Z,99926.81
2023-03-16T10:05:37.542Z,99927.28
2023-03-16T10:08:21.192Z,99932.19
2023-03-16T10:11:25.848Z,99928.47
2023-03-16T10:14:17.651Z,99935.91
2023-03-16T10:17:01.221Z,99935.91
2023-03-16T10:19:39.244Z,99938.44
2023-03-16T10:22:17.568Z,99943.78
2023-03-16T10:25:09.456Z,99942.34
2023-03-16T10:27:38.838Z,99938.84
2023-03-16T10:30:20.954Z,99941.09
2023-03-16T10:32:48.548Z,99930.66
2023-03-16T10:35:37.556Z,99934.88
2023-03-16T10:38:04.479Z,99926.97
2023-03-16T10:40:33.352Z,99908.97
2023-03-16T10:43:16.451Z,99922.53
2023-03-16T10:45:43.303Z,99919.31
2023-03-16T10:48:15.384Z,99919.69
2023-03-16T10:50:44.382Z,99924.41
2023-03-16T10:53:21.496Z,99906.47
2023-03-16T10:55:48.555Z,99916.13
2023-03-16T10:58:30.912Z,99916.53
2023-03-16T11:00:57.757Z,99936.88
2023-03-16T11:03:32.173Z,99927.50
2023-03-16T11:06:04.114Z,99923.31
2023-03-16T11:08:34.049Z,99926.16
2023-03-16T11:11:09.750Z,99924.66
2023-03-16T11:13:38.694Z,99935.22
2023-03-16T11:16:37.697Z,99917.06
2023-03-16T11:19:31.440Z,99924.06
2023-03-16T11:22:17.753Z,99909.50
2023-03-16T11:24:53.780Z,99910.31
2023-03-16T11:27:37.411Z,99899.25
2023-03-16T11:30:12.423Z,99892.09
2023-03-16T11:32:42.138Z,99892.88
2023-03-16T11:35:16.576Z,99888.41
2023-03-16T11:38:10.994Z,99887.28
2023-03-16T11:40:47.441Z,99873.63
2023-03-16T11:43:16.667Z,99867.06
2023-03-16T11:46:22.878Z,99878.03
2023-03-16T11:49:14.447Z,99859.00
2023-03-16T11:51:52.946Z,99840.66
2023-03-16T11:54:53.476Z,99853.31
2023-03-16T11:57:46.599Z,99840.16
2023-03-16T12:00:36.417Z,99842.66
2023-03-16T12:03:31.184Z,99845.31
2023-03-16T12:06:22.355Z,99840.91
2023-03-16T12:09:07.949Z,99834.09
2023-03-16T12:11:48.156Z,99834.25
2023-03-16T12:14:27.643Z,99826.75
2023-03-16T12:17:15.745Z,99835.06
2023-03-16T12:20:07.119Z,99829.34
2023-03-16T12:22:39.494Z,99820.16
2023-03-16T12:25:16.995Z,99821.75
2023-03-16T12:27:45.496Z,99802.19
2023-03-16T12:30:58.373Z,99790.78
2023-03-16T12:34:08.317Z,99783.38
2023-03-16T12:36:50.052Z,99769.72
2023-03-16T12:39:38.169Z,99759.47
2023-03-16T12:42:20.865Z,99770.47
2023-03-16T12:45:02.487Z,99745.25
2023-03-16T12:47:50.769Z,99745.72
2023-03-16T12:50:19.756Z,99739.09
2023-03-16T12:52:49.358Z,99731.00
2023-03-16T12:55:34.506Z,99737.03
2023-03-16T12:58:06.280Z,99728.44
2023-03-16T13:00:35.934Z,99735.59
2023-03-16T13:03:03.898Z,99716.03
2023-03-16T13:05:34.666Z,99724.44
2023-03-16T13:08:14.613Z,99718.50
2023-03-16T13:10:41.405Z,99711.75
2023-03-16T13:13:16.147Z,99709.53
2023-03-16T13:15:47.232Z,99703.69
2023-03-16T13:18:20.237Z,99705.63
2023-03-16T13:20:49.565Z,99697.66
2023-03-16T13:23:24.530Z,99696.97
2023-03-16T13:26:05.758Z,99686.22
2023-03-16T13:28:35.943Z,99686.56
2023-03-16T13:31:04.645Z,99680.25
2023-03-16T13:33:38.294Z,99678.59
2023-03-16T13:36:08.480Z,99676.84
2023-03-16T13:38:34.986Z,99668.94
2023-03-16T13:41:10.401Z,99662.16
2023-03-16T13:43:41.634Z,99657.53
2023-03-16T13:46:21.249Z,99663.78
2023-03-16T13:48:48.801Z,99652.78
2023-03-16T13:51:18.608Z,99655.31
2023-03-16T13:53:45.471Z,99646.97
2023-03-16T13:56:17.213Z,99648.47
2023-03-16T13:58:48.388Z,99655.72
2023-03-16T14:01:33.261Z,99644.00
2023-03-16T14:04:08.603Z,99646.53
2023-03-16T14:06:36.646Z,99644.00
2023-03-16T14:09:06.668Z,99637.16
2023-03-16T14:11:33.363Z,99636.28
2023-03-16T14:14:00.565Z,99633.53
2023-03-16T14:16:29.726Z,99630.69
2023-03-16T14:19:06.552Z,99626.78
2023-03-16T14:21:34.689Z,99624.66
2023-03-16T14:24:05.540Z,99607.09
2023-03-16T14:26:46.749Z,99610.41
2023-03-16T14:29:31.284Z,99596.72
2023-03-16T14:31:59.881Z,99589.66
2023-03-16T14:34:34.715Z,99576.63
2023-03-16T14:37:11.290Z,99585.97
2023-03-16T14:39:40.282Z,99578.78
2023-03-16T14:42:15.414Z,99566.34
2023-03-16T14:44:42.353Z,99568.53
2023-03-16T14:47:22.280Z,99562.94
2023-03-16T14:49:48.803Z,99545.59
2023-03-16T14:52:33.907Z,99551.44
2023-03-16T14:55:03.547Z,99521.97
2023-03-16T14:57:30.577Z,99528.00
2023-03-16T14:59:56.974Z,99531.34
2023-03-16T15:02:29.637Z,99533.00
2023-03-16T15:04:57.612Z,99530.47
2023-03-16T15:07:27.430Z,99534.25
2023-03-16T15:09:56.415Z,99524.50
2023-03-16T15:12:25.009Z,99514.38
2023-03-16T15:15:10.509Z,99497.03
2023-03-16T15:17:37.047Z,99504.13
2023-03-16T15:20:04.004Z,99498.84
2023-03-16T15:22:33.714Z,99493.44
2023-03-16T15:25:23.049Z,99490.69
2023-03-16T15:27:50.061Z,99492.72
2023-03-16T15:30:19.071Z,99494.94
2023-03-16T15:32:45.777Z,99489.91
2023-03-16T15:35:12.349Z,99491.09
2023-03-16T15:37:39.359Z,99477.63
2023-03-16T15:40:16.994Z,99480.38
2023-03-16T15:42:46.315Z,99467.75
2023-03-16T15:45:17.468Z,99475.09
2023-03-16T15:47:44.705Z,99477.13
2023-03-16T15:50:15.533Z,99479.31
2023-03-16T15:52:47.970Z,99468.31
2023-03-16T15:55:33.133Z,99476.97
2023-03-16T15:58:02.225Z,99478.91
2023-03-16T16:00:31.276Z,99478.41
2023-03-16T16:03:08.827Z,99472.97
2023-03-16T16:05:36.157Z,99471.28
2023-03-16T16:08:02.551Z,99463.78
2023-03-16T16:10:29.355Z,99459.81
2023-03-16T16:12:56.890Z,99452.13
2023-03-16T16:15:31.048Z,99441.28
2023-03-16T16:18:19.705Z,99439.69
2023-03-16T16:20:44.436Z,99441.84
2023-03-16T16:23:10.865Z,99450.97
2023-03-16T16:25:41.230Z,99445.13
2023-03-16T16:28:19.693Z,99435.97
2023-03-16T16:30:46.228Z,99444.03
2023-03-16T16:33:24.642Z,99434.03
2023-03-16T16:35:52.643Z,99430.75
2023-03-16T16:38:19.208Z,99427.59
2023-03-16T16:40:46.292Z,99439.47
2023-03-16T16:43:29.526Z,99441.09
2023-03-16T16:45:56.233Z,99432.41
2023-03-16T16:48:31.762Z,99437.41
2023-03-16T16:50:59.841Z,99427.19
2023-03-16T16:53:26.329Z,99431.84
2023-03-16T16:55:53.624Z,99434.06
2023-03-16T16:58:24.471Z,99427.44
2023-03-16T17:00:58.797Z,99437.72
2023-03-16T17:03:28.195Z,99435.28
2023-03-16T17:05:57.754Z,99431.28
2023-03-16T17:08:25.778Z,99426.44
2023-03-16T17:10:53.796Z,99421.72
2023-03-16T17:13:36.658Z,99419.91
2023-03-16T17:16:03.102Z,99420.97
2023-03-16T17:18:29.895Z,99416.22
2023-03-16T17:20:56.901Z,99418.66
2023-03-16T17:23:32.628Z,99413.13
2023-03-16T17:26:11.609Z,99411.97
2023-03-16T17:28:43.390Z,99411.72
2023-03-16T17:31:12.536Z,99411.31
2023-03-16T17:33:39.011Z,99404.88
2023-03-16T17:36:06.539Z,99411.50
2023-03-16T17:38:33.606Z,99409.38
2023-03-16T17:41:00.191Z,99402.09
2023-03-16T17:43:29.006Z,99406.16
2023-03-16T17:45:55.460Z,99398.69
2023-03-16T17:48:24.084Z,99405.28
2023-03-16T17:50:51.533Z,99408.22
2023-03-16T17:53:19.541Z,99407.03
2023-03-16T17:55:46.733Z,99412.47
2023-03-16T17:58:23.867Z,99416.38
2023-03-16T18:00:50.915Z,99411.22
2023-03-16T18:03:17.592Z,99412.13
2023-03-16T18:05:45.690Z,99414.97
2023-03-16T18:08:46.711Z,99411.78
2023-03-16T18:11:19.309Z,99411.66
2023-03-16T18:13:47.945Z,99405.59
2023-03-16T18:16:19.819Z,99416.22
2023-03-16T18:18:46.505Z,99410.09
2023-03-16T18:21:58.247Z,99415.56
2023-03-16T18:24:26.656Z,99408.31
2023-03-16T18:26:53.936Z,99410.19
2023-03-16T18:29:20.367Z,99411.03
2023-03-16T18:31:47.471Z,99400.50
2023-03-16T18:34:23.659Z,99402.50
2023-03-16T18:36:53.056Z,99407.66
2023-03-16T18:39:21.956Z,99402.41
2023-03-16T18:41:48.303Z,99406.81
2023-03-16T18:44:22.404Z,99407.84
2023-03-16T18:46:50.581Z,99409.53
2023-03-16T18:49:19.280Z,99412.25
2023-03-16T18:51:49.136Z,99403.63
2023-03-16T18:54:18.760Z,99402.78
2023-03-16T18:56:45.096Z,99404.47
2023-03-16T18:59:12.403Z,99406.34
2023-03-16T19:01:42.080Z,99409.00
2023-03-16T19:04:23.726Z,99396.00
2023-03-16T19:06:53.275Z,99402.78
2023-03-16T19:09:26.503Z,99393.19
2023-03-16T19:11:53.143Z,99394.06
2023-03-16T19:14:45.858Z,99402.22
2023-03-16T19:17:12.220Z,99394.97
2023-03-16T19:19:38.700Z,99407.31
2023-03-16T19:22:16.006Z,99403.19
2023-03-16T19:24:47.163Z,99404.84
2023-03-16T19:27:25.624Z,99393.69
2023-03-16T19:29:53.867Z,99398.88
2023-03-16T19:32:22.136Z,99383.25
2023-03-16T19:34:49.044Z,99389.47
2023-03-16T19:37:16.847Z,99380.81
2023-03-16T19:39:43.928Z,99387.03
2023-03-16T19:42:25.756Z,99381.31
2023-03-16T19:44:52.444Z,99382.03
2023-03-16T19:47:27.765Z,99384.97
2023-03-16T19:49:54.449Z,99381.38
2023-03-16T19:52:21.083Z,99387.78
2023-03-16T19:54:47.633Z,99377.25
2023-03-16T19:57:17.839Z,99381.72
2023-03-16T19:59:47.851Z,99387.94
2023-03-16T20:02:38.535Z,99389.06
2023-03-16T20:05:05.604Z,99375.72
2023-03-16T20:07:37.825Z,99383.63
2023-03-16T20:10:08.187Z,99390.78
2023-03-16T20:12:42.277Z,99379.59
2023-03-16T20:15:20.956Z,99380.44
2023-03-16T20:17:49.051Z,99380.25
2023-03-16T20:20:22.548Z,99378.53
2023-03-16T20:22:49.277Z,99379.31
2023-03-16T20:25:16.278Z,99366.97
2023-03-16T20:27:43.674Z,99366.97
2023-03-16T20:30:18.748Z,99360.22
2023-03-16T20:32:46.706Z,99346.97
2023-03-16T20:35:32.452Z,99345.47
2023-03-16T20:37:59.199Z,99335.72
2023-03-16T20:40:26.174Z,99327.81
2023-03-16T20:42:53.153Z,99330.53
2023-03-16T20:45:24.043Z,99331.59
2023-03-16T20:47:52.664Z,99329.03
2023-03-16T20:50:30.745Z,99322.38
2023-03-16T20:52:57.484Z,99326.59
2023-03-16T20:55:27.154Z,99325.00
2023-03-16T20:57:55.391Z,99325.00
2023-03-16T21:00:37.201Z,99324.47
2023-03-16T21:03:13.958Z,99316.56
2023-03-16T21:05:40.841Z,99307.81
2023-03-16T21:08:08.142Z,99300.06
2023-03-16T21:10:34.656Z,99289.63
2023-03-16T21:13:01.502Z,99276.56
2023-03-16T21:15:31.527Z,99289.81
2023-03-16T21:18:15.081Z,99284.56
2023-03-16T21:20:41.477Z,99294.22
2023-03-16T21:23:17.855Z,99276.66
2023-03-16T21:25:48.192Z,99282.78
2023-03-16T21:28:15.630Z,99286.53
2023-03-16T21:30:48.674Z,99284.09
2023-03-16T21:33:23.382Z,99287.66
2023-03-16T21:35:50.035Z,99289.34
2023-03-16T21:38:20.810Z,99284.19
2023-03-16T21:40:48.434Z,99286.81
2023-03-16T21:43:15.969Z,99275.34
2023-03-16T21:45:43.791Z,99266.63
2023-03-16T21:48:18.642Z,99264.09
2023-03-16T21:50:45.433Z,99247.38
2023-03-16T21:53:22.787Z,99246.63
2023-03-16T21:55:51.642Z,99247.38
2023-03-16T21:58:18.887Z,99245.59
2023-03-16T22:00:46.769Z,99241.25
2023-03-16T22:03:50.179Z,99249.34
2023-03-16T22:06:18.019Z,99246.50
2023-03-16T22:08:44.742Z,99252.72
2023-03-16T22:11:23.340Z,99251.13
2023-03-16T22:13:51.708Z,99243.25
2023-03-16T22:16:21.126Z,99245.97
2023-03-16T22:18:50.886Z,99244.38
2023-03-16T22:21:39.315Z,99249.94
2023-03-16T22:24:13.468Z,99230.59
2023-03-16T22:26:40.442Z,99234.16
2023-03-16T22:29:28.097Z,99217.06
2023-03-16T22:32:10.565Z,99224.97
2023-03-16T22:34:53.818Z,99225.91
2023-03-16T22:37:23.079Z,99215.41
2023-03-16T22:39:50.238Z,99208.25
2023-03-16T22:42:33.575Z,99206.75
2023-03-16T22:45:00.705Z,99201.59
2023-03-16T22:47:32.285Z,99200.75
2023-03-16T22:49:59.269Z,99200.94
2023-03-16T22:52:29.997Z,99199.53
2023-03-16T22:54:58.798Z,99208.38
2023-03-16T22:57:25.596Z,99209.31
2023-03-16T22:59:52.635Z,99212.97
2023-03-16T23:02:24.224Z,99204.31
2023-03-16T23:04:51.039Z,99204.41
2023-03-16T23:07:18.118Z,99202.81
2023-03-16T23:09:44.586Z,99194.94
2023-03-16T23:12:17.279Z,99194.22
2023-03-16T23:14:43.752Z,99192.31
2023-03-16T23:17:18.629Z,99191.69
2023-03-16T23:19:45.689Z,99182.75
2023-03-16T23:22:12.657Z,99187.16
2023-03-16T23:24:39.277Z,99193.25
2023-03-16T23:27:16.394Z,99194.31
2023-03-16T23:29:43.078Z,99197.88
2023-03-16T23:32:11.338Z,99189.88
2023-03-16T23:34:37.835Z,99198.63
2023-03-16T23:37:04.371Z,99196.84
2023-03-16T23:39:30.870Z,99205.53
2023-03-16T23:41:57.704Z,99209.03
2023-03-16T23:44:27.592Z,99217.00
2023-03-16T23:46:54.617Z,99218.59
2023-03-16T23:49:27.652Z,99215.97
2023-03-16T23:51:56.202Z,99209.69
2023-03-16T23:54:25.456Z,99196.25
2023-03-16T23:56:52.549Z,99193.47
2023-03-16T23:59:20.394Z,99177.47
